createdAt,value
2022-10-01T00:02:07.989Z,84.14
2022-10-01T00:04:40.090Z,84.15
2022-10-01T00:07:11.093Z,83.88
2022-10-01T00:09:39.172Z,83.83
2022-10-01T00:12:07.510Z,84.01
2022-10-01T00:14:39.304Z,84.28
2022-10-01T00:17:07.340Z,83.96
2022-10-01T00:19:35.387Z,84.14
2022-10-01T00:22:03.688Z,84.06
2022-10-01T00:24:31.985Z,83.71
2022-10-01T00:27:00.623Z,83.71
2022-10-01T00:29:28.723Z,83.45
2022-10-01T00:31:57.364Z,83.45
2022-10-01T00:34:25.525Z,83.46
2022-10-01T00:36:53.601Z,83.83
2022-10-01T00:39:21.930Z,83.40
2022-10-01T00:41:51.186Z,83.35
2022-10-01T00:44:35.141Z,83.45
2022-10-01T00:47:24.060Z,83.39
2022-10-01T00:49:59.200Z,83.44
2022-10-01T00:52:32.306Z,83.41
2022-10-01T00:55:28.388Z,83.41
2022-10-01T00:57:56.904Z,83.44
2022-10-01T01:00:25.356Z,83.92
2022-10-01T01:02:53.569Z,84.36
2022-10-01T01:05:21.779Z,84.37
2022-10-01T01:07:53.462Z,84.35
2022-10-01T01:10:37.789Z,84.51
2022-10-01T01:13:34.787Z,84.67
2022-10-01T01:16:24.481Z,84.48
2022-10-01T01:19:17.521Z,84.53
2022-10-01T01:21:53.295Z,84.43
2022-10-01T01:24:37.036Z,84.50
2022-10-01T01:27:07.851Z,84.84
2022-10-01T01:30:15.085Z,84.67
2022-10-01T01:32:49.158Z,84.41
2022-10-01T01:35:26.814Z,84.25
2022-10-01T01:38:02.010Z,84.03
2022-10-01T01:40:34.559Z,84.34
2022-10-01T01:43:06.737Z,84.52
2022-10-01T01:45:40.231Z,84.85
2022-10-01T01:48:11.428Z,85.32
2022-10-01T01:50:53.153Z,85.15
2022-10-01T01:53:21.538Z,84.95
2022-10-01T01:55:50.288Z,84.97
2022-10-01T01:58:19.592Z,85.31
2022-10-01T02:00:54.527Z,84.80
2022-10-01T02:03:25.978Z,85.04
2022-10-01T02:06:05.250Z,84.82
2022-10-01T02:08:37.029Z,84.90
2022-10-01T02:11:22.223Z,84.94
2022-10-01T02:14:04.051Z,84.85
2022-10-01T02:17:01.523Z,84.67
2022-10-01T02:19:43.351Z,85.01
2022-10-01T02:22:17.750Z,84.76
2022-10-01T02:24:51.531Z,85.02
2022-10-01T02:27:26.402Z,85.17
2022-10-01T02:29:57.770Z,85.34
2022-10-01T02:32:27.721Z,84.97
2022-10-01T02:34:57.049Z,84.99
2022-10-01T02:37:27.824Z,84.79
2022-10-01T02:39:57.535Z,84.20
2022-10-01T02:42:28.814Z,85.03
2022-10-01T02:45:04.192Z,85.43
2022-10-01T02:47:41.864Z,85.46
2022-10-01T02:50:10.247Z,85.39
2022-10-01T02:52:59.217Z,85.10
2022-10-01T02:55:31.040Z,85.26
2022-10-01T02:57:59.047Z,85.41
2022-10-01T03:00:27.307Z,85.35
2022-10-01T03:02:55.466Z,85.23
2022-10-01T03:05:23.719Z,85.32
2022-10-01T03:07:52.065Z,85.76
2022-10-01T03:10:20.040Z,85.61
2022-10-01T03:12:48.210Z,85.50
2022-10-01T03:15:19.390Z,85.34
2022-10-01T03:17:54.081Z,85.19
2022-10-01T03:20:22.584Z,85.26
2022-10-01T03:22:51.015Z,85.49
2022-10-01T03:25:19.183Z,85.44
2022-10-01T03:27:47.382Z,85.47
2022-10-01T03:30:15.504Z,85.67
2022-10-01T03:32:43.589Z,85.98
2022-10-01T03:35:11.885Z,86.63
2022-10-01T03:37:39.997Z,86.55
2022-10-01T03:40:08.529Z,86.66
2022-10-01T03:42:36.660Z,86.39
2022-10-01T03:45:04.775Z,86.12
2022-10-01T03:47:32.835Z,86.37
2022-10-01T03:50:00.721Z,86.12
2022-10-01T03:52:28.727Z,86.06
2022-10-01T03:54:56.622Z,85.65
2022-10-01T03:57:24.518Z,85.91
2022-10-01T03:59:52.690Z,85.52
2022-10-01T04:02:22.091Z,85.33
2022-10-01T04:04:51.233Z,86.16
2022-10-01T04:07:19.329Z,85.95
2022-10-01T04:09:47.478Z,86.25
2022-10-01T04:12:15.517Z,86.45
2022-10-01T04:14:43.551Z,86.92
2022-10-01T04:17:11.524Z,86.64
2022-10-01T04:19:39.414Z,86.63
2022-10-01T04:22:07.305Z,86.52
2022-10-01T04:24:35.255Z,86.90
2022-10-01T04:27:03.210Z,86.99
2022-10-01T04:29:31.118Z,87.21
2022-10-01T04:31:59.069Z,87.47
2022-10-01T04:34:46.936Z,87.38
2022-10-01T04:37:14.976Z,87.39
2022-10-01T04:39:43.000Z,87.36
2022-10-01T04:42:13.141Z,87.12
2022-10-01T04:44:41.524Z,86.79
2022-10-01T04:47:09.505Z,86.91
2022-10-01T04:49:37.433Z,86.93
2022-10-01T04:52:05.514Z,87.14
2022-10-01T04:54:33.515Z,87.25
2022-10-01T04:57:01.485Z,87.46
2022-10-01T04:59:29.409Z,88.02
2022-10-01T05:01:57.610Z,87.86
2022-10-01T05:04:27.411Z,87.82
2022-10-01T05:06:56.384Z,87.86
2022-10-01T05:09:24.427Z,87.77
2022-10-01T05:11:52.668Z,88.12
2022-10-01T05:14:21.520Z,88.27
2022-10-01T05:16:49.475Z,88.34
2022-10-01T05:19:17.562Z,88.08
2022-10-01T05:21:46.284Z,87.46
2022-10-01T05:24:15.271Z,87.65
2022-10-01T05:26:43.126Z,87.75
2022-10-01T05:29:11.584Z,87.75
2022-10-01T05:31:44.436Z,87.81
2022-10-01T05:34:12.828Z,87.80
2022-10-01T05:36:40.721Z,87.66
2022-10-01T05:39:08.656Z,87.67
2022-10-01T05:41:37.033Z,87.94
2022-10-01T05:44:06.270Z,87.79
2022-10-01T05:46:34.322Z,87.60
2022-10-01T05:49:02.209Z,87.51
2022-10-01T05:51:30.414Z,87.46
2022-10-01T05:54:01.833Z,87.98
2022-10-01T05:56:29.971Z,87.56
2022-10-01T05:58:58.381Z,87.69
2022-10-01T06:01:26.443Z,87.23
2022-10-01T06:03:54.435Z,86.77
2022-10-01T06:06:23.779Z,87.32
2022-10-01T06:08:52.502Z,87.18
2022-10-01T06:11:23.015Z,87.22
2022-10-01T06:13:51.138Z,87.02
2022-10-01T06:16:20.911Z,87.21
2022-10-01T06:18:49.773Z,87.26
2022-10-01T06:21:17.706Z,87.22
2022-10-01T06:23:46.022Z,87.29
2022-10-01T06:26:13.885Z,87.10
2022-10-01T06:28:41.840Z,86.53
2022-10-01T06:31:09.976Z,86.26
2022-10-01T06:33:38.330Z,86.17
2022-10-01T06:36:06.500Z,86.42
2022-10-01T06:38:34.595Z,86.51
2022-10-01T06:41:04.648Z,86.34
2022-10-01T06:43:33.952Z,86.19
2022-10-01T06:46:03.962Z,86.19
2022-10-01T06:48:35.567Z,86.12
2022-10-01T06:51:04.178Z,85.70
2022-10-01T06:53:32.308Z,85.85
2022-10-01T06:56:06.551Z,85.49
2022-10-01T06:58:34.963Z,85.18
2022-10-01T07:01:03.927Z,85.58
2022-10-01T07:03:32.364Z,85.62
2022-10-01T07:06:05.256Z,85.18
2022-10-01T07:08:33.475Z,84.26
2022-10-01T07:11:02.839Z,83.74
2022-10-01T07:13:32.186Z,83.64
2022-10-01T07:16:03.683Z,83.85
2022-10-01T07:18:31.740Z,84.08
2022-10-01T07:20:59.770Z,83.64
2022-10-01T07:23:27.657Z,82.79
2022-10-01T07:25:55.531Z,82.82
2022-10-01T07:28:25.750Z,82.38
2022-10-01T07:31:01.466Z,81.96
2022-10-01T07:33:29.799Z,82.68
2022-10-01T07:36:01.267Z,82.33
2022-10-01T07:38:29.697Z,81.76
2022-10-01T07:40:59.088Z,81.66
2022-10-01T07:43:27.021Z,81.97
2022-10-01T07:45:58.119Z,81.92
2022-10-01T07:48:27.672Z,82.04
2022-10-01T07:50:56.588Z,82.34
2022-10-01T07:53:25.603Z,81.49
2022-10-01T07:55:53.751Z,81.76
2022-10-01T07:58:24.268Z,81.33
2022-10-01T08:00:58.478Z,80.91
2022-10-01T08:03:27.523Z,80.51
2022-10-01T08:05:55.477Z,79.96
2022-10-01T08:08:23.316Z,79.82
2022-10-01T08:10:51.438Z,79.90
2022-10-01T08:13:20.450Z,79.14
2022-10-01T08:15:53.712Z,78.89
2022-10-01T08:18:22.273Z,78.95
2022-10-01T08:20:50.351Z,79.18
2022-10-01T08:23:18.739Z,79.06
2022-10-01T08:25:47.962Z,78.88
2022-10-01T08:28:16.505Z,78.45
2022-10-01T08:30:44.577Z,79.31
2022-10-01T08:33:14.299Z,79.01
2022-10-01T08:35:43.755Z,79.49
2022-10-01T08:38:12.770Z,79.50
2022-10-01T08:40:50.104Z,79.15
2022-10-01T08:43:32.844Z,78.15
2022-10-01T08:46:06.950Z,78.44
2022-10-01T08:48:58.793Z,77.78
2022-10-01T08:51:38.468Z,77.20
2022-10-01T08:54:29.076Z,76.70
2022-10-01T08:57:03.130Z,75.96
2022-10-01T08:59:47.319Z,75.46
2022-10-01T09:02:19.842Z,74.92
2022-10-01T09:04:49.232Z,75.09
2022-10-01T09:07:29.374Z,74.87
2022-10-01T09:10:09.172Z,75.13
2022-10-01T09:13:06.451Z,74.87
2022-10-01T09:15:56.383Z,73.95
2022-10-01T09:18:49.216Z,73.53
2022-10-01T09:21:33.571Z,72.54
2022-10-01T09:24:16.693Z,72.18
2022-10-01T09:26:50.229Z,72.52
2022-10-01T09:29:27.577Z,72.17
2022-10-01T09:31:58.999Z,72.30
2022-10-01T09:34:42.389Z,71.90
2022-10-01T09:37:49.548Z,71.43
2022-10-01T09:40:20.153Z,70.53
2022-10-01T09:42:48.267Z,70.22
2022-10-01T09:45:18.935Z,69.81
2022-10-01T09:47:51.118Z,69.64
2022-10-01T09:50:28.057Z,69.55
2022-10-01T09:52:58.268Z,69.16
2022-10-01T09:55:51.676Z,69.57
2022-10-01T09:58:23.961Z,69.61
2022-10-01T10:00:53.857Z,68.92
2022-10-01T10:03:24.487Z,68.11
2022-10-01T10:05:52.765Z,67.86
2022-10-01T10:08:39.683Z,67.90
2022-10-01T10:11:12.067Z,67.61
2022-10-01T10:13:48.803Z,67.54
2022-10-01T10:16:28.578Z,67.80
2022-10-01T10:19:15.621Z,66.75
2022-10-01T10:21:54.894Z,65.45
2022-10-01T10:24:31.729Z,65.14
2022-10-01T10:27:02.052Z,65.35
2022-10-01T10:29:34.929Z,64.60
2022-10-01T10:32:07.480Z,64.49
2022-10-01T10:34:43.050Z,63.00
2022-10-01T10:37:21.741Z,62.58
2022-10-01T10:39:51.905Z,62.66
2022-10-01T10:42:22.483Z,62.69
2022-10-01T10:44:54.638Z,62.45
2022-10-01T10:47:24.425Z,62.06
2022-10-01T10:50:04.470Z,61.32
2022-10-01T10:52:37.388Z,60.77
2022-10-01T10:55:31.526Z,59.91
2022-10-01T10:58:15.003Z,59.17
2022-10-01T11:00:50.551Z,59.02
2022-10-01T11:03:22.615Z,59.57
2022-10-01T11:05:52.100Z,58.76
2022-10-01T11:08:22.729Z,56.70
2022-10-01T11:11:27.728Z,54.79
2022-10-01T11:14:36.396Z,53.89
2022-10-01T11:17:27.931Z,53.39
2022-10-01T11:20:20.639Z,52.17
2022-10-01T11:22:55.022Z,51.43
2022-10-01T11:25:37.816Z,51.38
2022-10-01T11:28:39.735Z,51.54
2022-10-01T11:31:43.037Z,51.51
2022-10-01T11:34:48.765Z,50.62
2022-10-01T11:38:05.274Z,49.64
2022-10-01T11:40:59.184Z,49.28
2022-10-01T11:43:35.628Z,49.05
2022-10-01T11:46:10.659Z,48.01
2022-10-01T11:48:46.631Z,47.65
2022-10-01T11:51:20.061Z,48.10
2022-10-01T11:53:54.227Z,47.27
2022-10-01T11:56:49.378Z,46.89
2022-10-01T11:59:24.413Z,47.54
2022-10-01T12:02:03.231Z,47.67
2022-10-01T12:04:37.964Z,46.80
2022-10-01T12:07:15.471Z,46.30
2022-10-01T12:09:55.335Z,46.70
2022-10-01T12:12:30.100Z,46.78
2022-10-01T12:15:12.328Z,46.82
2022-10-01T12:17:55.437Z,46.29
2022-10-01T12:20:32.315Z,44.89
2022-10-01T12:23:05.277Z,45.03
2022-10-01T12:25:57.247Z,45.23
2022-10-01T12:28:41.261Z,46.63
2022-10-01T12:31:27.406Z,46.58
2022-10-01T12:34:17.639Z,45.98
2022-10-01T12:37:11.060Z,46.33
2022-10-01T12:39:51.446Z,46.73
2022-10-01T12:42:25.521Z,46.08
2022-10-01T12:45:19.981Z,45.29
2022-10-01T12:47:54.921Z,45.25
2022-10-01T12:50:31.428Z,45.17
2022-10-01T12:53:25.929Z,45.23
2022-10-01T12:56:33.921Z,45.37
2022-10-01T12:59:11.935Z,45.26
2022-10-01T13:02:04.117Z,44.22
2022-10-01T13:05:05.203Z,44.52
2022-10-01T13:07:56.546Z,44.91
2022-10-01T13:11:02.952Z,44.33
2022-10-01T13:13:33.590Z,45.16
2022-10-01T13:16:09.338Z,45.24
2022-10-01T13:18:52.226Z,45.05
2022-10-01T13:21:32.390Z,44.43
2022-10-01T13:24:14.589Z,44.59
2022-10-01T13:26:56.088Z,44.62
2022-10-01T13:29:26.947Z,44.67
2022-10-01T13:31:57.358Z,44.50
2022-10-01T13:34:32.192Z,44.88
2022-10-01T13:37:14.072Z,44.70
2022-10-01T13:39:43.545Z,44.78
2022-10-01T13:42:20.523Z,44.75
2022-10-01T13:45:16.670Z,44.97
2022-10-01T13:47:44.729Z,45.03
2022-10-01T13:50:24.954Z,45.75
2022-10-01T13:53:06.129Z,45.63
2022-10-01T13:55:34.237Z,45.86
2022-10-01T13:58:20.939Z,46.24
2022-10-01T14:00:54.498Z,46.36
2022-10-01T14:03:59.700Z,47.57
2022-10-01T14:06:41.885Z,46.64
2022-10-01T14:09:35.786Z,46.50
2022-10-01T14:12:24.781Z,46.61
2022-10-01T14:15:16.191Z,47.54
2022-10-01T14:17:46.392Z,47.84
2022-10-01T14:21:06.727Z,48.03
2022-10-01T14:23:43.320Z,48.15
2022-10-01T14:26:22.207Z,49.00
2022-10-01T14:29:17.928Z,48.70
2022-10-01T14:31:58.858Z,49.21
2022-10-01T14:34:47.978Z,48.97
2022-10-01T14:37:18.783Z,49.26
2022-10-01T14:39:46.956Z,50.08
2022-10-01T14:42:18.515Z,49.84
2022-10-01T14:44:47.525Z,50.00
2022-10-01T14:47:26.164Z,50.92
2022-10-01T14:49:54.886Z,50.58
2022-10-01T14:52:32.210Z,50.39
2022-10-01T14:55:06.020Z,50.53
2022-10-01T14:57:43.852Z,51.09
2022-10-01T15:00:18.615Z,51.18
2022-10-01T15:03:01.969Z,51.86
2022-10-01T15:05:33.521Z,51.74
2022-10-01T15:08:23.375Z,52.35
2022-10-01T15:10:59.156Z,52.97
2022-10-01T15:13:31.244Z,53.36
2022-10-01T15:15:59.809Z,53.61
2022-10-01T15:18:28.645Z,53.28
2022-10-01T15:21:05.663Z,53.55
2022-10-01T15:23:39.059Z,53.08
2022-10-01T15:26:11.424Z,53.61
2022-10-01T15:28:39.599Z,53.82
2022-10-01T15:31:08.026Z,54.40
2022-10-01T15:33:41.104Z,54.55
2022-10-01T15:36:15.216Z,54.68
2022-10-01T15:38:44.891Z,54.95
2022-10-01T15:41:32.085Z,54.26
2022-10-01T15:44:05.596Z,54.59
2022-10-01T15:46:36.036Z,54.07
2022-10-01T15:49:17.243Z,54.34
2022-10-01T15:52:20.175Z,54.64
2022-10-01T15:54:57.135Z,55.07
2022-10-01T15:57:27.272Z,55.24
2022-10-01T15:59:57.832Z,56.03
2022-10-01T16:02:30.648Z,56.10
2022-10-01T16:05:06.791Z,56.05
2022-10-01T16:07:35.556Z,55.82
2022-10-01T16:10:34.628Z,56.04
2022-10-01T16:13:39.280Z,56.18
2022-10-01T16:16:13.144Z,56.31
2022-10-01T16:18:41.942Z,56.87
2022-10-01T16:21:11.435Z,56.56
2022-10-01T16:23:44.182Z,56.85
2022-10-01T16:26:27.334Z,56.81
2022-10-01T16:29:12.092Z,56.25
2022-10-01T16:31:43.520Z,56.76
2022-10-01T16:34:13.999Z,57.92
2022-10-01T16:36:43.047Z,59.17
2022-10-01T16:39:13.801Z,60.17
2022-10-01T16:41:56.561Z,62.13
2022-10-01T16:44:38.288Z,63.09
2022-10-01T16:47:06.043Z,64.11
2022-10-01T16:49:34.658Z,65.48
2022-10-01T16:52:02.721Z,65.80
2022-10-01T16:54:30.569Z,66.56
2022-10-01T16:56:59.444Z,67.81
2022-10-01T16:59:27.184Z,68.82
2022-10-01T17:01:57.076Z,70.28
2022-10-01T17:04:29.259Z,71.25
2022-10-01T17:06:59.833Z,72.67
2022-10-01T17:09:27.891Z,73.90
2022-10-01T17:11:55.853Z,76.86
2022-10-01T17:14:25.042Z,77.04
2022-10-01T17:16:53.620Z,75.64
2022-10-01T17:19:22.096Z,75.10
2022-10-01T17:21:50.057Z,75.81
2022-10-01T17:24:17.855Z,76.13
2022-10-01T17:26:46.128Z,76.70
2022-10-01T17:29:13.864Z,77.33
2022-10-01T17:31:44.762Z,77.85
2022-10-01T17:34:13.255Z,77.62
2022-10-01T17:36:41.141Z,78.33
2022-10-01T17:39:09.019Z,79.02
2022-10-01T17:41:36.915Z,79.63
2022-10-01T17:44:04.853Z,79.86
2022-10-01T17:46:33.005Z,80.05
2022-10-01T17:49:00.911Z,80.56
2022-10-01T17:51:29.046Z,81.22
2022-10-01T17:53:57.020Z,81.34
2022-10-01T17:56:25.088Z,81.78
2022-10-01T17:58:54.763Z,82.26
2022-10-01T18:01:22.949Z,82.59
2022-10-01T18:03:56.772Z,83.21
2022-10-01T18:06:25.328Z,83.39
2022-10-01T18:08:56.237Z,83.72
2022-10-01T18:11:28.262Z,84.23
2022-10-01T18:13:56.602Z,84.70
2022-10-01T18:16:25.812Z,84.65
2022-10-01T18:21:51.136Z,85.24
2022-10-01T18:24:19.551Z,85.62
2022-10-01T18:26:47.452Z,85.86
2022-10-01T18:29:21.625Z,85.88
2022-10-01T18:32:13.025Z,85.82
2022-10-01T18:34:47.744Z,85.82
2022-10-01T18:37:37.557Z,85.46
2022-10-01T18:40:20.853Z,85.58
2022-10-01T18:43:02.486Z,85.48
2022-10-01T18:46:06.869Z,85.42
2022-10-01T18:49:05.821Z,85.47
2022-10-01T18:52:08.936Z,85.99
2022-10-01T18:55:07.665Z,85.95
2022-10-01T18:57:58.344Z,85.94
2022-10-01T19:00:42.809Z,86.11
2022-10-01T19:03:36.672Z,85.97
2022-10-01T19:06:11.556Z,85.60
2022-10-01T19:08:42.637Z,85.59
2022-10-01T19:11:51.642Z,85.51
2022-10-01T19:14:46.634Z,85.70
2022-10-01T19:17:19.370Z,85.57
2022-10-01T19:20:20.861Z,85.39
2022-10-01T19:23:00.989Z,85.57
2022-10-01T19:25:37.788Z,85.93
2022-10-01T19:28:30.607Z,86.09
2022-10-01T19:31:07.061Z,85.50
2022-10-01T19:33:42.128Z,85.80
2022-10-01T19:36:35.210Z,85.80
2022-10-01T19:39:11.011Z,86.18
2022-10-01T19:41:53.454Z,86.16
2022-10-01T19:44:31.898Z,86.13
2022-10-01T19:47:20.893Z,86.23
2022-10-01T19:49:51.779Z,86.01
2022-10-01T19:52:22.769Z,85.69
2022-10-01T19:54:59.105Z,86.33
2022-10-01T19:57:28.973Z,86.69
2022-10-01T20:00:04.788Z,86.51
2022-10-01T20:02:34.267Z,86.86
2022-10-01T20:05:10.147Z,87.07
2022-10-01T20:07:54.824Z,86.94
2022-10-01T20:10:25.444Z,86.91
2022-10-01T20:13:14.791Z,87.31
2022-10-01T20:16:12.646Z,87.34
2022-10-01T20:18:54.582Z,87.70
2022-10-01T20:21:37.559Z,87.98
2022-10-01T20:24:14.354Z,88.11
2022-10-01T20:26:54.615Z,87.73
2022-10-01T20:29:38.211Z,88.02
2022-10-01T20:32:20.120Z,88.09
2022-10-01T20:34:50.836Z,87.96
2022-10-01T20:37:51.822Z,88.14
2022-10-01T20:40:25.300Z,88.03
2022-10-01T20:43:04.672Z,88.17
2022-10-01T20:45:35.574Z,88.21
2022-10-01T20:48:27.337Z,88.22
2022-10-01T20:51:15.379Z,87.83
2022-10-01T20:54:11.273Z,88.02
2022-10-01T20:56:47.102Z,88.15
2022-10-01T20:59:23.768Z,88.01
2022-10-01T21:02:13.563Z,88.56
2022-10-01T21:04:50.936Z,88.52
2022-10-01T21:07:50.332Z,88.48
2022-10-01T21:10:27.095Z,88.12
2022-10-01T21:13:05.535Z,88.03
2022-10-01T21:15:51.177Z,87.59
2022-10-01T21:18:30.773Z,86.65
2022-10-01T21:21:28.957Z,87.13
2022-10-01T21:24:41.866Z,87.48
2022-10-01T21:27:18.724Z,87.37
2022-10-01T21:30:16.808Z,87.42
2022-10-01T21:33:14.894Z,87.63
2022-10-01T21:35:56.943Z,87.63
2022-10-01T21:38:35.173Z,87.57
2022-10-01T21:41:28.787Z,87.28
2022-10-01T21:44:14.773Z,87.05
2022-10-01T21:46:53.368Z,87.36
2022-10-01T21:49:52.172Z,87.33
2022-10-01T21:52:25.971Z,87.66
2022-10-01T21:54:53.590Z,87.68
2022-10-01T21:57:53.493Z,87.59
2022-10-01T22:00:26.578Z,87.69
2022-10-01T22:03:20.020Z,87.90
2022-10-01T22:06:07.207Z,88.09
2022-10-01T22:08:49.791Z,87.63
2022-10-01T22:11:21.880Z,87.72
2022-10-01T22:14:12.068Z,87.60
2022-10-01T22:16:48.560Z,87.62
2022-10-01T22:19:21.739Z,87.65
2022-10-01T22:21:56.194Z,87.26
2022-10-01T22:24:31.075Z,87.11
2022-10-01T22:27:07.081Z,87.35
2022-10-01T22:29:42.705Z,87.19
2022-10-01T22:32:13.853Z,87.13
2022-10-01T22:34:48.180Z,87.32
2022-10-01T22:37:26.919Z,87.35
2022-10-01T22:40:03.536Z,87.36
2022-10-01T22:42:38.772Z,87.19
2022-10-01T22:45:13.736Z,87.63
2022-10-01T22:47:56.388Z,87.55
2022-10-01T22:50:26.924Z,87.52
2022-10-01T22:53:28.424Z,87.42
2022-10-01T22:55:57.628Z,87.48
2022-10-01T22:59:00.718Z,87.15
2022-10-01T23:01:55.995Z,87.41
2022-10-01T23:04:23.915Z,87.92
2022-10-01T23:07:34.099Z,87.82
2022-10-01T23:10:10.657Z,87.92
2022-10-01T23:12:41.544Z,87.94
2022-10-01T23:15:12.077Z,88.53
2022-10-01T23:17:57.621Z,88.43
2022-10-01T23:20:33.397Z,88.33
2022-10-01T23:23:17.565Z,88.06
2022-10-01T23:26:10.132Z,87.72
2022-10-01T23:28:59.195Z,87.54
2022-10-01T23:31:54.314Z,87.96
2022-10-01T23:34:37.716Z,87.80
2022-10-01T23:37:21.714Z,87.88
2022-10-01T23:39:52.795Z,88.02
2022-10-01T23:42:42.017Z,88.28
2022-10-01T23:45:39.540Z,88.07
2022-10-01T23:48:21.282Z,87.80
2022-10-01T23:51:13.360Z,87.45
2022-10-01T23:53:50.917Z,87.45
2022-10-01T23:56:46.875Z,87.43
2022-10-01T23:59:33.490Z,87.61
